createdAt,value
2022-10-16T00:01:35.861Z,0.50
2022-10-16T00:04:05.165Z,0.50
2022-10-16T00:06:33.510Z,0.50
2022-10-16T00:09:01.482Z,0.70
2022-10-16T00:11:30.739Z,0.85
2022-10-16T00:14:00.837Z,1.00
2022-10-16T00:16:29.433Z,0.95
2022-10-16T00:18:57.508Z,0.70
2022-10-16T00:21:28.842Z,0.70
2022-10-16T00:24:00.078Z,0.60
2022-10-16T00:26:29.692Z,0.80
2022-10-16T00:28:57.512Z,0.70
2022-10-16T00:31:26.249Z,0.70
2022-10-16T00:33:54.352Z,0.70
2022-10-16T00:36:24.489Z,0.80
2022-10-16T00:38:55.504Z,0.90
2022-10-16T00:41:25.001Z,0.80
2022-10-16T00:43:54.334Z,0.80
2022-10-16T00:46:24.227Z,0.80
2022-10-16T00:48:56.913Z,0.90
2022-10-16T00:51:30.377Z,0.65
2022-10-16T00:53:59.813Z,0.80
2022-10-16T00:56:28.079Z,0.57
2022-10-16T00:58:55.694Z,0.63
2022-10-16T01:01:23.657Z,0.50
2022-10-16T01:03:51.235Z,0.80
2022-10-16T01:09:13.890Z,0.85
2022-10-16T01:11:50.543Z,0.98
2022-10-16T01:14:29.708Z,1.05
2022-10-16T01:17:03.593Z,2.20
2022-10-16T01:20:02.367Z,3.25
2022-10-16T01:22:39.492Z,2.60
2022-10-16T01:25:14.567Z,3.37
2022-10-16T01:27:47.246Z,2.60
2022-10-16T01:30:20.911Z,2.53
2022-10-16T01:32:54.789Z,1.90
2022-10-16T01:35:28.499Z,2.13
2022-10-16T01:38:04.042Z,3.40
2022-10-16T01:40:35.054Z,2.58
2022-10-16T01:43:08.692Z,2.92
2022-10-16T01:45:37.872Z,2.72
2022-10-16T01:48:08.852Z,2.30
2022-10-16T01:50:41.728Z,2.33
2022-10-16T01:53:14.013Z,2.30
2022-10-16T01:55:46.708Z,2.33
2022-10-16T01:58:16.404Z,2.00
2022-10-16T02:00:46.819Z,1.90
2022-10-16T02:03:17.854Z,1.65
2022-10-16T02:05:48.402Z,1.80
2022-10-16T02:08:16.167Z,1.90
2022-10-16T02:10:44.215Z,2.00
2022-10-16T02:13:18.952Z,2.10
2022-10-16T02:15:46.771Z,2.42
2022-10-16T02:18:14.785Z,3.33
2022-10-16T02:20:51.023Z,2.50
2022-10-16T02:23:26.494Z,2.92
2022-10-16T02:25:56.389Z,3.50
2022-10-16T02:28:29.321Z,3.67
2022-10-16T02:31:01.545Z,3.50
2022-10-16T02:33:31.569Z,3.83
2022-10-16T02:35:59.981Z,4.43
2022-10-16T02:38:29.217Z,3.90
2022-10-16T02:40:56.851Z,4.05
2022-10-16T02:43:26.869Z,3.58
2022-10-16T02:45:54.437Z,4.60
2022-10-16T02:48:22.057Z,5.00
2022-10-16T02:50:49.580Z,4.75
2022-10-16T02:53:17.122Z,4.43
2022-10-16T02:55:44.778Z,4.28
2022-10-16T02:58:12.369Z,3.80
2022-10-16T03:00:41.527Z,5.18
2022-10-16T03:03:09.137Z,5.20
2022-10-16T03:05:36.874Z,5.38
2022-10-16T03:08:04.541Z,5.27
2022-10-16T03:10:32.719Z,5.03
2022-10-16T03:13:00.346Z,4.40
2022-10-16T03:15:29.112Z,4.70
2022-10-16T03:17:59.479Z,5.05
2022-10-16T03:20:27.585Z,5.72
2022-10-16T03:22:55.140Z,6.10
2022-10-16T03:25:22.692Z,5.83
2022-10-16T03:27:50.210Z,5.40
2022-10-16T03:30:18.181Z,5.07
2022-10-16T03:32:45.900Z,4.03
2022-10-16T03:35:15.077Z,3.55
2022-10-16T03:37:42.601Z,2.90
2022-10-16T03:40:10.940Z,3.90
2022-10-16T03:42:38.461Z,4.85
2022-10-16T03:45:07.139Z,4.40
2022-10-16T03:47:34.897Z,4.15
2022-10-16T03:50:02.671Z,5.00
2022-10-16T03:52:32.924Z,4.47
2022-10-16T03:55:00.555Z,4.03
2022-10-16T03:57:28.573Z,3.60
2022-10-16T03:59:56.397Z,3.30
2022-10-16T04:02:24.004Z,3.22
2022-10-16T04:04:51.563Z,2.80
2022-10-16T04:07:19.214Z,2.60
2022-10-16T04:09:48.155Z,2.60
2022-10-16T04:12:15.690Z,2.67
2022-10-16T04:14:43.235Z,2.25
2022-10-16T04:17:10.783Z,2.00
2022-10-16T04:19:38.443Z,2.10
2022-10-16T04:22:06.054Z,1.60
2022-10-16T04:24:33.779Z,1.30
2022-10-16T04:27:02.786Z,1.30
2022-10-16T04:29:30.350Z,1.20
2022-10-16T04:31:57.958Z,1.17
2022-10-16T04:34:25.657Z,1.00
2022-10-16T04:36:53.162Z,1.20
2022-10-16T04:39:20.806Z,1.20
2022-10-16T04:41:48.331Z,1.30
2022-10-16T04:44:17.229Z,1.60
2022-10-16T04:46:45.285Z,1.70
2022-10-16T04:49:12.846Z,1.80
2022-10-16T04:51:40.413Z,1.90
2022-10-16T04:54:07.975Z,2.15
2022-10-16T04:56:41.032Z,2.30
2022-10-16T04:59:08.589Z,2.40
2022-10-16T05:01:37.502Z,2.30
2022-10-16T05:04:05.262Z,2.03
2022-10-16T05:06:32.965Z,2.30
2022-10-16T05:09:00.605Z,2.40
2022-10-16T05:11:28.278Z,2.20
2022-10-16T05:13:56.079Z,1.70
2022-10-16T05:16:23.802Z,1.63
2022-10-16T05:18:56.177Z,1.70
2022-10-16T05:21:31.960Z,2.03
2022-10-16T05:23:59.562Z,2.20
2022-10-16T05:26:27.109Z,3.10
2022-10-16T05:28:54.789Z,2.90
2022-10-16T05:31:22.419Z,2.85
2022-10-16T05:36:23.950Z,3.03
2022-10-16T05:38:53.134Z,2.90
2022-10-16T05:41:22.569Z,3.08
2022-10-16T05:43:50.721Z,3.00
2022-10-16T05:46:18.594Z,2.42
2022-10-16T05:48:46.131Z,2.40
2022-10-16T05:51:16.528Z,2.40
2022-10-16T05:53:45.483Z,2.60
2022-10-16T05:56:13.710Z,2.60
2022-10-16T05:58:42.397Z,2.70
2022-10-16T06:01:13.124Z,2.90
2022-10-16T06:03:41.151Z,2.70
2022-10-16T06:06:12.825Z,2.88
2022-10-16T06:08:41.146Z,3.40
2022-10-16T06:11:11.714Z,3.53
2022-10-16T06:13:39.864Z,3.40
2022-10-16T06:16:08.508Z,3.60
2022-10-16T06:18:36.051Z,3.90
2022-10-16T06:21:09.340Z,3.63
2022-10-16T06:23:36.970Z,3.72
2022-10-16T06:26:10.497Z,3.43
2022-10-16T06:28:38.302Z,3.30
2022-10-16T06:31:08.483Z,3.00
2022-10-16T06:33:36.744Z,3.28
2022-10-16T06:36:04.871Z,4.70
2022-10-16T06:38:32.581Z,4.47
2022-10-16T06:41:00.634Z,5.55
2022-10-16T06:43:32.953Z,4.80
2022-10-16T06:46:02.342Z,4.60
2022-10-16T06:48:30.953Z,5.00
2022-10-16T06:51:00.551Z,4.70
2022-10-16T06:53:31.386Z,4.43
2022-10-16T06:56:09.666Z,4.70
2022-10-16T06:58:39.094Z,4.55
2022-10-16T07:01:07.893Z,4.40
2022-10-16T07:03:37.737Z,5.25
2022-10-16T07:06:06.597Z,5.43
2022-10-16T07:08:34.511Z,5.50
2022-10-16T07:11:02.559Z,5.57
2022-10-16T07:13:30.547Z,4.90
2022-10-16T07:15:59.624Z,5.00
2022-10-16T07:21:06.320Z,14.98
2022-10-16T07:23:34.002Z,15.98
2022-10-16T07:26:01.609Z,6.60
2022-10-16T07:28:29.633Z,6.05
2022-10-16T07:31:02.015Z,5.40
2022-10-16T07:33:29.582Z,4.63
2022-10-16T07:35:57.445Z,4.03
2022-10-16T07:38:25.281Z,4.22
2022-10-16T07:40:58.280Z,3.65
2022-10-16T07:43:25.873Z,3.63
2022-10-16T07:45:53.801Z,3.35
2022-10-16T07:48:23.873Z,3.30
2022-10-16T07:50:51.415Z,12.10
2022-10-16T07:53:20.520Z,7.90
2022-10-16T07:55:49.926Z,7.80
2022-10-16T07:58:17.494Z,12.60
2022-10-16T08:00:45.051Z,9.30
2022-10-16T08:03:12.603Z,7.82
2022-10-16T08:05:41.625Z,5.40
2022-10-16T08:08:14.849Z,5.10
2022-10-16T08:10:42.818Z,4.75
2022-10-16T08:13:10.570Z,4.00
2022-10-16T08:15:38.153Z,41.03
2022-10-16T08:18:07.404Z,13.02
2022-10-16T08:20:35.567Z,5.30
2022-10-16T08:23:04.637Z,9.55
2022-10-16T08:25:32.197Z,8.23
2022-10-16T08:27:59.723Z,7.07
2022-10-16T08:30:27.298Z,6.35
2022-10-16T08:32:54.895Z,5.82
2022-10-16T08:35:22.466Z,6.00
2022-10-16T08:37:49.990Z,5.25
2022-10-16T08:40:21.651Z,4.90
2022-10-16T08:43:06.512Z,6.40
2022-10-16T08:45:45.730Z,5.50
2022-10-16T08:48:21.970Z,4.90
2022-10-16T08:50:51.225Z,4.47
2022-10-16T08:53:24.563Z,3.50
2022-10-16T08:55:55.065Z,3.30
2022-10-16T08:58:24.804Z,3.30
2022-10-16T09:00:55.709Z,3.00
2022-10-16T09:03:39.552Z,2.45
2022-10-16T09:06:28.562Z,3.10
2022-10-16T09:09:16.950Z,3.20
2022-10-16T09:11:55.105Z,2.42
2022-10-16T09:14:40.002Z,2.30
2022-10-16T09:17:25.038Z,2.50
2022-10-16T09:19:58.169Z,1.90
2022-10-16T09:22:29.967Z,1.80
2022-10-16T09:25:02.760Z,1.90
2022-10-16T09:27:32.064Z,2.20
2022-10-16T09:30:14.497Z,2.92
2022-10-16T09:32:43.966Z,3.22
2022-10-16T09:35:17.376Z,3.40
2022-10-16T09:37:47.024Z,3.10
2022-10-16T09:40:25.325Z,2.60
2022-10-16T09:42:58.835Z,2.42
2022-10-16T09:45:26.761Z,2.65
2022-10-16T09:47:57.735Z,2.60
2022-10-16T09:50:28.199Z,2.47
2022-10-16T09:53:07.741Z,2.42
2022-10-16T09:55:35.508Z,2.60
2022-10-16T09:58:04.433Z,2.30
2022-10-16T10:00:33.054Z,2.30
2022-10-16T10:03:00.619Z,3.72
2022-10-16T10:05:30.650Z,2.67
2022-10-16T10:08:00.915Z,4.13
2022-10-16T10:10:30.703Z,2.58
2022-10-16T10:12:59.311Z,2.70
2022-10-16T10:15:35.341Z,2.42
2022-10-16T10:18:04.122Z,2.20
2022-10-16T10:20:35.240Z,2.10
2022-10-16T10:23:03.797Z,2.22
2022-10-16T10:25:44.749Z,2.00
2022-10-16T10:28:43.125Z,2.10
2022-10-16T10:31:16.565Z,2.33
2022-10-16T10:33:49.314Z,2.45
2022-10-16T10:36:27.075Z,2.28
2022-10-16T10:38:59.480Z,2.50
2022-10-16T10:42:02.406Z,2.20
2022-10-16T10:44:50.387Z,2.40
2022-10-16T10:47:28.597Z,2.28
2022-10-16T10:50:08.890Z,2.20
2022-10-16T10:52:51.161Z,1.90
2022-10-16T10:55:26.619Z,1.80
2022-10-16T10:58:30.019Z,2.15
2022-10-16T11:01:08.772Z,4.88
2022-10-16T11:03:58.279Z,2.50
2022-10-16T11:06:30.080Z,2.25
2022-10-16T11:09:03.954Z,2.75
2022-10-16T11:11:36.851Z,5.73
2022-10-16T11:14:13.901Z,6.68
2022-10-16T11:16:46.513Z,3.58
2022-10-16T11:19:20.793Z,2.53
2022-10-16T11:21:58.170Z,1.85
2022-10-16T11:24:37.493Z,1.60
2022-10-16T11:27:10.744Z,1.48
2022-10-16T11:29:47.422Z,2.92
2022-10-16T11:32:24.452Z,1.60
2022-10-16T11:34:57.925Z,2.03
2022-10-16T11:37:29.906Z,2.40
2022-10-16T11:40:04.457Z,1.98
2022-10-16T11:42:38.728Z,1.90
2022-10-16T11:45:25.377Z,1.55
2022-10-16T11:48:00.103Z,1.60
2022-10-16T11:50:34.929Z,2.07
2022-10-16T11:53:10.726Z,1.60
2022-10-16T11:55:43.368Z,1.88
2022-10-16T11:58:24.684Z,1.73
2022-10-16T12:01:00.768Z,3.80
2022-10-16T12:03:33.891Z,2.30
2022-10-16T12:06:15.766Z,1.77
2022-10-16T12:08:45.462Z,1.95
2022-10-16T12:11:32.516Z,2.00
2022-10-16T12:14:09.059Z,1.80
2022-10-16T12:16:39.859Z,1.80
2022-10-16T12:19:15.863Z,1.90
2022-10-16T12:21:45.587Z,1.85
2022-10-16T12:24:29.381Z,1.63
2022-10-16T12:26:57.163Z,1.83
2022-10-16T12:29:34.066Z,1.80
2022-10-16T12:32:02.422Z,1.80
2022-10-16T12:34:34.446Z,1.73
2022-10-16T12:37:15.088Z,1.83
2022-10-16T12:39:43.367Z,1.77
2022-10-16T12:42:32.621Z,2.45
2022-10-16T12:45:00.227Z,2.47
2022-10-16T12:47:39.172Z,2.40
2022-10-16T12:50:26.560Z,2.20
2022-10-16T12:52:55.521Z,2.33
2022-10-16T12:55:24.725Z,1.98
2022-10-16T12:58:11.509Z,1.67
2022-10-16T13:00:46.513Z,1.90
2022-10-16T13:03:39.920Z,2.20
2022-10-16T13:06:19.281Z,2.50
2022-10-16T13:09:09.202Z,3.30
2022-10-16T13:11:55.109Z,2.70
2022-10-16T13:14:47.857Z,2.53
2022-10-16T13:17:24.504Z,2.40
2022-10-16T13:20:01.396Z,2.30
2022-10-16T13:22:35.701Z,2.10
2022-10-16T13:25:19.962Z,2.10
2022-10-16T13:27:55.964Z,2.40
2022-10-16T13:30:28.346Z,2.67
2022-10-16T13:33:02.885Z,2.20
2022-10-16T13:35:32.410Z,2.10
2022-10-16T13:38:13.306Z,2.30
2022-10-16T13:40:52.766Z,2.10
2022-10-16T13:43:24.081Z,2.10
2022-10-16T13:45:56.972Z,2.10
2022-10-16T13:48:24.571Z,1.92
2022-10-16T13:51:02.749Z,2.08
2022-10-16T13:53:32.933Z,2.05
2022-10-16T13:56:03.855Z,2.25
2022-10-16T13:58:31.646Z,5.25
2022-10-16T14:01:01.460Z,6.78
2022-10-16T14:03:30.434Z,6.03
2022-10-16T14:06:01.337Z,8.40
2022-10-16T14:08:31.394Z,6.45
2022-10-16T14:11:00.769Z,6.95
2022-10-16T14:13:36.142Z,5.00
2022-10-16T14:16:09.364Z,3.47
2022-10-16T14:18:39.419Z,3.20
2022-10-16T14:21:08.508Z,2.80
2022-10-16T14:23:39.246Z,2.50
2022-10-16T14:26:18.413Z,2.30
2022-10-16T14:28:49.565Z,2.33
2022-10-16T14:31:56.150Z,2.30
2022-10-16T14:34:34.361Z,2.40
2022-10-16T14:39:41.639Z,2.47
2022-10-16T14:42:17.043Z,2.42
2022-10-16T14:44:46.214Z,2.45
2022-10-16T14:47:16.403Z,1.98
2022-10-16T14:49:44.411Z,2.20
2022-10-16T14:52:13.408Z,2.50
2022-10-16T14:54:41.935Z,2.30
2022-10-16T14:57:18.950Z,2.20
2022-10-16T14:59:49.145Z,2.20
2022-10-16T15:02:24.690Z,2.33
2022-10-16T15:04:52.524Z,2.28
2022-10-16T15:07:20.533Z,2.27
2022-10-16T15:09:49.347Z,2.10
2022-10-16T15:12:17.257Z,1.95
2022-10-16T15:14:44.836Z,2.28
2022-10-16T15:17:15.445Z,3.30
2022-10-16T15:19:45.038Z,4.20
2022-10-16T15:22:13.281Z,3.40
2022-10-16T15:24:40.885Z,2.72
2022-10-16T15:27:08.413Z,2.90
2022-10-16T15:29:35.954Z,2.30
2022-10-16T15:32:03.503Z,2.70
2022-10-16T15:34:32.411Z,2.40
2022-10-16T15:37:00.759Z,2.30
2022-10-16T15:39:28.386Z,2.10
2022-10-16T15:41:55.990Z,2.33
2022-10-16T15:44:24.166Z,2.27
2022-10-16T15:46:51.698Z,2.50
2022-10-16T15:49:19.323Z,2.65
2022-10-16T15:51:48.227Z,2.88
2022-10-16T15:54:16.135Z,3.22
2022-10-16T15:56:43.665Z,2.63
2022-10-16T15:59:11.331Z,2.90
2022-10-16T16:01:39.235Z,2.80
2022-10-16T16:04:15.427Z,2.77
2022-10-16T16:06:54.574Z,2.80
2022-10-16T16:09:22.096Z,2.80
2022-10-16T16:11:52.115Z,3.10
2022-10-16T16:14:19.907Z,3.40
2022-10-16T16:16:47.514Z,3.35
2022-10-16T16:19:17.021Z,4.00
2022-10-16T16:21:44.549Z,3.88
2022-10-16T16:24:13.442Z,3.55
2022-10-16T16:26:44.346Z,4.20
2022-10-16T16:29:15.112Z,4.70
2022-10-16T16:31:43.558Z,4.47
2022-10-16T16:34:11.450Z,4.65
2022-10-16T16:36:39.793Z,4.18
2022-10-16T16:39:07.504Z,3.87
2022-10-16T16:41:36.386Z,3.45
2022-10-16T16:44:05.810Z,3.80
2022-10-16T16:46:33.952Z,3.38
2022-10-16T16:49:02.907Z,3.53
2022-10-16T16:51:30.632Z,3.65
2022-10-16T16:53:58.178Z,3.65
2022-10-16T16:56:26.769Z,3.90
2022-10-16T16:58:57.499Z,9.48
2022-10-16T17:01:27.296Z,19.55
2022-10-16T17:03:56.724Z,11.23
2022-10-16T17:06:26.365Z,7.40
2022-10-16T17:08:54.109Z,5.28
2022-10-16T17:11:23.596Z,4.70
2022-10-16T17:13:55.636Z,4.70
2022-10-16T17:16:28.708Z,5.50
2022-10-16T17:18:56.461Z,5.40
2022-10-16T17:21:24.047Z,5.35
2022-10-16T17:23:53.687Z,6.18
2022-10-16T17:26:21.494Z,5.55
2022-10-16T17:28:53.158Z,5.50
2022-10-16T17:31:23.768Z,5.70
2022-10-16T17:33:52.915Z,5.93
2022-10-16T17:36:21.403Z,6.85
2022-10-16T17:38:49.578Z,6.43
2022-10-16T17:41:18.922Z,6.43
2022-10-16T17:43:47.435Z,6.47
2022-10-16T17:46:17.080Z,6.30
2022-10-16T17:48:46.744Z,6.32
2022-10-16T17:51:18.138Z,5.75
2022-10-16T17:53:49.678Z,5.27
2022-10-16T17:56:17.350Z,6.40
2022-10-16T17:58:47.772Z,6.22
2022-10-16T18:01:21.609Z,6.17
2022-10-16T18:03:50.997Z,6.05
2022-10-16T18:06:22.905Z,6.20
2022-10-16T18:08:51.259Z,6.93
2022-10-16T18:11:19.178Z,7.10
2022-10-16T18:13:47.043Z,7.80
2022-10-16T18:16:16.504Z,8.65
2022-10-16T18:18:45.866Z,8.85
2022-10-16T18:21:16.312Z,8.60
2022-10-16T18:23:50.887Z,8.00
2022-10-16T18:26:21.605Z,8.65
2022-10-16T18:28:50.969Z,7.95
2022-10-16T18:31:18.925Z,7.57
2022-10-16T18:33:50.372Z,7.22
2022-10-16T18:36:19.998Z,7.30
2022-10-16T18:38:49.453Z,7.90
2022-10-16T18:41:17.762Z,7.57
2022-10-16T18:43:45.407Z,8.38
2022-10-16T18:46:15.873Z,8.57
2022-10-16T18:48:43.932Z,8.60
2022-10-16T18:51:13.889Z,7.93
2022-10-16T18:53:43.667Z,7.80
2022-10-16T18:56:14.857Z,7.75
2022-10-16T18:58:43.575Z,7.82
2022-10-16T19:01:16.473Z,7.70
2022-10-16T19:03:45.060Z,7.80
2022-10-16T19:06:14.632Z,7.65
2022-10-16T19:08:43.444Z,7.00
2022-10-16T19:11:13.872Z,7.40
2022-10-16T19:13:41.655Z,7.30
2022-10-16T19:16:21.194Z,7.10
2022-10-16T19:18:50.687Z,7.10
2022-10-16T19:21:18.841Z,7.80
2022-10-16T19:23:46.660Z,8.05
2022-10-16T19:26:18.416Z,8.90
2022-10-16T19:28:47.029Z,8.90
2022-10-16T19:31:16.504Z,8.90
2022-10-16T19:33:44.582Z,10.18
2022-10-16T19:36:14.471Z,9.38
2022-10-16T19:38:43.362Z,9.70
2022-10-16T19:41:12.670Z,9.90
2022-10-16T19:43:41.988Z,8.40
2022-10-16T19:46:12.137Z,7.90
2022-10-16T19:48:41.082Z,7.40
2022-10-16T19:51:12.326Z,7.00
2022-10-16T19:53:40.064Z,7.43
2022-10-16T19:56:13.553Z,7.80
2022-10-16T19:58:43.225Z,8.07
2022-10-16T20:01:11.671Z,7.68
2022-10-16T20:03:40.455Z,7.90
2022-10-16T20:06:09.625Z,8.10
2022-10-16T20:08:39.436Z,8.15
2022-10-16T20:11:10.845Z,8.00
2022-10-16T20:13:41.555Z,8.30
2022-10-16T20:16:12.886Z,8.48
2022-10-16T20:18:40.926Z,9.25
2022-10-16T20:21:12.660Z,8.55
2022-10-16T20:23:41.217Z,8.53
2022-10-16T20:26:11.301Z,8.88
2022-10-16T20:28:41.237Z,8.20
2022-10-16T20:31:12.079Z,7.80
2022-10-16T20:33:39.736Z,8.93
2022-10-16T20:36:12.077Z,9.18
2022-10-16T20:38:40.134Z,8.57
2022-10-16T20:41:08.520Z,8.90
2022-10-16T20:43:37.002Z,8.73
2022-10-16T20:46:08.702Z,9.20
2022-10-16T20:48:40.969Z,8.60
2022-10-16T20:51:13.037Z,8.63
2022-10-16T20:53:40.734Z,9.20
2022-10-16T20:56:09.742Z,8.80
2022-10-16T20:58:37.917Z,8.82
2022-10-16T21:01:07.122Z,8.70
2022-10-16T21:03:34.814Z,8.95
2022-10-16T21:06:04.696Z,9.52
2022-10-16T21:08:35.430Z,9.25
2022-10-16T21:11:02.990Z,8.52
2022-10-16T21:13:30.784Z,8.57
2022-10-16T21:15:58.579Z,8.50
2022-10-16T21:18:26.115Z,8.02
2022-10-16T21:20:53.667Z,8.20
2022-10-16T21:23:22.598Z,7.00
2022-10-16T21:25:50.366Z,7.87
2022-10-16T21:28:18.330Z,8.48
2022-10-16T21:30:46.017Z,7.70
2022-10-16T21:33:13.561Z,7.67
2022-10-16T21:35:41.129Z,7.90
2022-10-16T21:38:08.711Z,8.57
2022-10-16T21:40:37.910Z,8.88
2022-10-16T21:43:05.469Z,9.20
2022-10-16T21:45:35.245Z,9.10
2022-10-16T21:48:02.778Z,9.38
2022-10-16T21:50:30.523Z,9.10
2022-10-16T21:52:58.043Z,8.18
2022-10-16T21:55:25.584Z,7.22
2022-10-16T21:57:54.446Z,6.95
2022-10-16T22:00:21.964Z,8.32
2022-10-16T22:02:49.483Z,10.45
2022-10-16T22:05:17.001Z,8.90
2022-10-16T22:07:44.534Z,9.40
2022-10-16T22:10:12.058Z,9.13
2022-10-16T22:12:40.547Z,9.00
2022-10-16T22:15:10.936Z,8.82
2022-10-16T22:17:39.396Z,8.77
2022-10-16T22:20:08.223Z,8.38
2022-10-16T22:22:35.760Z,8.63
2022-10-16T22:25:03.351Z,8.15
2022-10-16T22:27:30.998Z,8.00
2022-10-16T22:29:58.576Z,7.80
2022-10-16T22:32:27.532Z,7.40
2022-10-16T22:34:55.062Z,7.33
2022-10-16T22:37:22.589Z,7.90
2022-10-16T22:39:50.108Z,7.57
2022-10-16T22:42:17.633Z,7.68
2022-10-16T22:44:45.235Z,8.13
2022-10-16T22:47:12.767Z,8.63
2022-10-16T22:49:41.734Z,7.82
2022-10-16T22:52:09.266Z,7.45
2022-10-16T22:54:37.035Z,7.53
2022-10-16T22:57:04.963Z,7.45
2022-10-16T22:59:32.975Z,7.47
2022-10-16T23:02:00.607Z,6.97
2022-10-16T23:04:28.141Z,6.60
2022-10-16T23:06:57.006Z,6.60
2022-10-16T23:09:24.573Z,6.75
2022-10-16T23:11:52.109Z,7.18
2022-10-16T23:14:21.126Z,6.90
2022-10-16T23:16:48.697Z,7.60
2022-10-16T23:19:17.041Z,8.00
2022-10-16T23:21:44.574Z,8.38
2022-10-16T23:24:13.532Z,8.80
2022-10-16T23:26:41.140Z,8.80
2022-10-16T23:29:08.819Z,9.27
2022-10-16T23:31:36.650Z,9.20
2022-10-16T23:34:04.345Z,8.95
2022-10-16T23:36:31.869Z,8.43
2022-10-16T23:38:59.434Z,8.40
2022-10-16T23:41:28.365Z,7.90
2022-10-16T23:43:55.926Z,8.23
2022-10-16T23:48:55.941Z,8.10
2022-10-16T23:51:23.542Z,7.93
2022-10-16T23:53:52.418Z,8.30
2022-10-16T23:56:20.344Z,8.30
2022-10-16T23:58:49.228Z,7.70
